Evanston Uinta County Burns Field
KEVW : now visible

Airfield :











YOU CAN JOIN US ON...

 
LOGIN :

Register | Disclaimer

   EN    FR    IT 

 









Legend :    VFR   Marginal VFR   IFR   Intensive IFR   Very Intensive IFR
Visi :
Ceiling :
>= 8 km
>= 3000ft
5 to 8 km
1000 to 3000 ft
1500m to 5 km
500 to 1000 ft
800 to 1500m
200 to 500 ft
< 800m
< 200 ft
Symbols :   Thunderstorms  Fog  Heavy snow  Heavy precipitations  Wind > 20 kt






- Airport Elevation : 7143 ft


KEVW - Evanston Uinta County Burns Field

CURRENT METAR :
  • 271653Z AUTO 22013KT 10SM SCT024 BKN110 M04/M08 A3005 RMK AO2 SLP197 T10391078 $

EXPIRED METARs :
  • 271553Z AUTO 24009KT 10SM OVC023 M04/M08 A3007 RMK AO2 SLP204 T10441078 $
  • 271453Z AUTO 23009KT 6SM BR BKN025 M06/M08 A3006 RMK AO2 SLP201 T10561078 55005 $

TAF KEVW
Valid from the 27 at 18:00 until the 28 at 18:00 UTC


271726Z 2718/2818 24012G24KT P6SM SCT030 BKN110
FM280000 22010G18KT P6SM SCT050 BKN100
FM281200 23015G27KT 3SM BLSN SCT020 OVC030
KZLC FIR / North America



MET'MAP, your aeronautical weather chart ! - Copyright ORBIFLY December 2007 - Disclaimer

ORBIFLY MET'MAP TEAM :

Programming & Development : Alexandra Zaïnal
Original concept : Baudouin d'Aumeries
Technical & hardware support : Manuel Goepfert
Assistance : Marc-Olivier Méhu




SOURCES & CREDITS :

   NOAA       Earth
Advisory